Colton, South Dakota
Current Conditions -  °F | °C
As of 9:02 AM on Thursday 23 Oct 2014 (Local Time) from KFSD Reporting Station
Haze Haze  
Wind Chill: 45°   Ceiling: Unl
Heat Index: 45°   Visibility: 1.5mi
Dew Point: 44°   Wind: 0mph
Humidity: 97%   Direction: NA
Pressure: 30.03"   Gusts: NA
Location:  43.79°N, 96.93°W
Report Text: KFSD 231402Z 00000KT 1 1/2SM R03/4000VP6000FT BR FEW001 SCT200 07/07 A3003 RMK AO2 VIS S-SW 1/2 T00720067
Loading
Personal Weather Stations






























Interactive Weather Map
Tropical Storm Tracking
New forecast layout! Learn more

10-Day Weather Forecast

Advertisements
Track Severe Weather on mobile